createdAt,value
2023-01-27T00:00:38.344Z,38.11
2023-01-27T00:01:38.337Z,38.41
2023-01-27T00:02:38.595Z,38.57
2023-01-27T00:03:39.136Z,38.14
2023-01-27T00:04:38.308Z,37.54
2023-01-27T00:05:38.304Z,39.34
2023-01-27T00:06:38.294Z,39.07
2023-01-27T00:07:38.289Z,39.21
2023-01-27T00:08:38.262Z,38.67
2023-01-27T00:09:38.252Z,38.71
2023-01-27T00:10:38.239Z,38.87
2023-01-27T00:11:38.230Z,38.96
2023-01-27T00:12:38.230Z,38.43
2023-01-27T00:13:38.223Z,42.98
2023-01-27T00:14:38.201Z,39.10
2023-01-27T00:15:38.294Z,38.80
2023-01-27T00:16:38.184Z,38.04
2023-01-27T00:17:38.186Z,37.64
2023-01-27T00:18:38.158Z,38.67
2023-01-27T00:19:38.152Z,38.87
2023-01-27T00:20:38.139Z,40.03
2023-01-27T00:21:38.138Z,40.45
2023-01-27T00:22:38.135Z,39.14
2023-01-27T00:23:38.112Z,39.84
2023-01-27T00:24:38.127Z,40.80
2023-01-27T00:25:38.092Z,40.05
2023-01-27T00:26:38.079Z,39.01
2023-01-27T00:27:38.088Z,39.22
2023-01-27T00:28:38.058Z,37.90
2023-01-27T00:29:38.052Z,37.72
2023-01-27T00:30:38.089Z,38.68
2023-01-27T00:31:38.163Z,39.09
2023-01-27T00:32:38.067Z,39.38
2023-01-27T00:33:38.011Z,39.27
2023-01-27T00:34:37.996Z,39.14
2023-01-27T00:35:37.993Z,45.49
2023-01-27T00:36:37.995Z,39.03
2023-01-27T00:37:37.990Z,38.26
2023-01-27T00:38:37.959Z,39.31
2023-01-27T00:39:37.953Z,39.77
2023-01-27T00:40:37.942Z,38.04
2023-01-27T00:41:37.933Z,38.54
2023-01-27T00:42:37.915Z,38.83
2023-01-27T00:43:37.931Z,38.17
2023-01-27T00:44:37.893Z,39.02
2023-01-27T00:45:37.890Z,38.22
2023-01-27T00:46:37.909Z,38.02
2023-01-27T00:47:37.865Z,38.02
2023-01-27T00:48:37.864Z,37.85
2023-01-27T00:49:37.846Z,37.61
2023-01-27T00:50:37.833Z,37.54
2023-01-27T00:51:37.826Z,37.16
2023-01-27T00:52:37.814Z,37.90
2023-01-27T00:53:37.816Z,38.99
2023-01-27T00:54:37.797Z,39.24
2023-01-27T00:55:37.788Z,39.56
2023-01-27T00:56:37.771Z,38.63
2023-01-27T00:57:37.767Z,38.86
2023-01-27T00:58:37.764Z,38.28
2023-01-27T00:59:37.747Z,38.86
2023-01-27T01:00:37.732Z,38.83
2023-01-27T01:01:37.826Z,38.29
2023-01-27T01:02:37.741Z,38.86
2023-01-27T01:03:37.719Z,39.23
2023-01-27T01:04:37.696Z,39.38
2023-01-27T01:05:37.688Z,41.01
2023-01-27T01:06:37.672Z,41.03
2023-01-27T01:07:37.667Z,41.27
2023-01-27T01:08:37.668Z,40.74
2023-01-27T01:09:37.651Z,38.83
2023-01-27T01:10:37.635Z,39.30
2023-01-27T01:11:37.628Z,38.57
2023-01-27T01:12:37.613Z,38.81
2023-01-27T01:13:37.619Z,38.84
2023-01-27T01:14:37.591Z,39.54
2023-01-27T01:15:37.584Z,37.80
2023-01-27T01:16:37.571Z,36.79
2023-01-27T01:17:37.568Z,36.83
2023-01-27T01:18:37.566Z,37.60
2023-01-27T01:19:37.547Z,37.27
2023-01-27T01:20:37.540Z,37.62
2023-01-27T01:21:38.649Z,37.88
2023-01-27T01:22:37.515Z,37.44
2023-01-27T01:23:37.535Z,37.60
2023-01-27T01:24:37.491Z,36.57
2023-01-27T01:25:37.504Z,36.37
2023-01-27T01:26:37.467Z,36.60
2023-01-27T01:27:37.472Z,36.93
2023-01-27T01:28:37.471Z,36.85
2023-01-27T01:29:37.444Z,36.25
2023-01-27T01:30:37.454Z,36.25
2023-01-27T01:31:37.510Z,36.46
2023-01-27T01:32:37.409Z,37.24
2023-01-27T01:33:37.421Z,37.38
2023-01-27T01:34:37.387Z,37.01
2023-01-27T01:35:37.422Z,37.49
2023-01-27T01:36:37.364Z,37.23
2023-01-27T01:37:37.362Z,37.21
2023-01-27T01:38:37.375Z,36.71
2023-01-27T01:39:37.344Z,36.72
2023-01-27T01:40:37.327Z,37.15
2023-01-27T01:41:37.324Z,36.97
2023-01-27T01:42:37.306Z,42.47
2023-01-27T01:43:37.310Z,37.54
2023-01-27T01:44:37.282Z,36.95
2023-01-27T01:45:37.281Z,36.83
2023-01-27T01:46:37.299Z,36.83
2023-01-27T01:47:37.258Z,36.58
2023-01-27T01:48:37.271Z,36.85
2023-01-27T01:49:37.244Z,37.05
2023-01-27T01:50:37.232Z,37.59
2023-01-27T01:51:37.218Z,37.98
2023-01-27T01:52:37.212Z,36.94
2023-01-27T01:53:37.216Z,37.01
2023-01-27T01:54:37.191Z,37.53
2023-01-27T01:55:37.178Z,36.97
2023-01-27T01:56:37.172Z,37.11
2023-01-27T01:57:37.154Z,36.86
2023-01-27T01:58:37.145Z,36.97
2023-01-27T01:59:37.144Z,36.97
2023-01-27T02:00:37.130Z,37.04
2023-01-27T02:01:37.117Z,37.19
2023-01-27T02:02:37.197Z,36.96
2023-01-27T02:03:37.092Z,36.93
2023-01-27T02:04:37.092Z,37.30
2023-01-27T02:05:37.070Z,48.78
2023-01-27T02:06:37.060Z,38.26
2023-01-27T02:07:37.054Z,37.44
2023-01-27T02:08:37.059Z,37.15
2023-01-27T02:09:37.041Z,41.61
2023-01-27T02:10:37.024Z,44.73
2023-01-27T02:11:37.013Z,37.38
2023-01-27T02:12:37.026Z,37.52
2023-01-27T02:13:36.993Z,47.80
2023-01-27T02:14:36.997Z,43.58
2023-01-27T02:15:36.969Z,37.86
2023-01-27T02:16:37.053Z,37.72
2023-01-27T02:17:36.950Z,37.94
2023-01-27T02:18:36.951Z,37.09
2023-01-27T02:19:36.949Z,37.66
2023-01-27T02:20:36.922Z,37.71
2023-01-27T02:21:36.911Z,38.25
2023-01-27T02:22:36.904Z,42.64
2023-01-27T02:23:36.890Z,37.60
2023-01-27T02:24:36.900Z,37.45
2023-01-27T02:25:36.889Z,37.29
2023-01-27T02:26:36.863Z,37.60
2023-01-27T02:27:36.863Z,38.07
2023-01-27T02:28:36.840Z,38.21
2023-01-27T02:29:36.841Z,43.82
2023-01-27T02:30:36.943Z,37.97
2023-01-27T02:31:36.961Z,42.89
2023-01-27T02:32:39.224Z,37.31
2023-01-27T02:33:36.786Z,37.62
2023-01-27T02:34:36.804Z,37.29
2023-01-27T02:35:36.772Z,37.24
2023-01-27T02:36:36.757Z,36.93
2023-01-27T02:37:36.747Z,37.05
2023-01-27T02:38:36.736Z,36.93
2023-01-27T02:39:36.738Z,37.11
2023-01-27T02:40:36.707Z,37.50
2023-01-27T02:41:36.713Z,41.41
2023-01-27T02:42:36.692Z,38.19
2023-01-27T02:43:36.682Z,37.41
2023-01-27T02:44:36.695Z,37.59
2023-01-27T02:45:36.666Z,38.00
2023-01-27T02:46:36.646Z,37.70
2023-01-27T02:47:36.649Z,36.88
2023-01-27T02:48:36.627Z,37.43
2023-01-27T02:49:36.620Z,37.65
2023-01-27T02:50:36.630Z,37.59
2023-01-27T02:51:36.611Z,36.91
2023-01-27T02:52:36.591Z,37.24
2023-01-27T02:53:36.583Z,37.77
2023-01-27T02:54:36.572Z,37.73
2023-01-27T02:55:36.573Z,37.25
2023-01-27T02:56:36.547Z,37.77
2023-01-27T02:57:36.552Z,38.19
2023-01-27T02:58:36.536Z,42.84
2023-01-27T02:59:36.520Z,37.62
2023-01-27T03:00:36.532Z,37.56
2023-01-27T03:01:36.542Z,37.16
2023-01-27T03:02:36.525Z,37.68
2023-01-27T03:03:36.480Z,37.17
2023-01-27T03:04:36.466Z,37.17
2023-01-27T03:05:36.469Z,37.87
2023-01-27T03:06:36.445Z,37.39
2023-01-27T03:07:36.444Z,36.95
2023-01-27T03:08:36.437Z,37.35
2023-01-27T03:09:36.421Z,37.38
2023-01-27T03:10:36.419Z,37.20
2023-01-27T03:11:36.408Z,37.02
2023-01-27T03:12:36.387Z,37.28
2023-01-27T03:13:36.385Z,37.41
2023-01-27T03:14:36.368Z,38.43
2023-01-27T03:15:36.428Z,37.87
2023-01-27T03:16:36.345Z,37.71
2023-01-27T03:17:36.337Z,37.47
2023-01-27T03:18:36.343Z,37.58
2023-01-27T03:19:36.317Z,40.17
2023-01-27T03:20:36.303Z,39.05
2023-01-27T03:21:36.304Z,44.18
2023-01-27T03:22:36.284Z,38.28
2023-01-27T03:23:36.277Z,38.23
2023-01-27T03:24:39.355Z,38.22
2023-01-27T03:25:36.258Z,38.62
2023-01-27T03:26:36.255Z,38.37
2023-01-27T03:27:36.236Z,44.61
2023-01-27T03:28:36.223Z,38.78
2023-01-27T03:29:36.222Z,38.84
2023-01-27T03:30:36.379Z,37.80
2023-01-27T03:31:36.294Z,38.60
2023-01-27T03:32:36.184Z,38.57
2023-01-27T03:33:36.180Z,43.77
2023-01-27T03:34:36.165Z,43.59
2023-01-27T03:35:36.157Z,39.00
2023-01-27T03:36:36.155Z,39.01
2023-01-27T03:37:36.134Z,39.27
2023-01-27T03:38:36.119Z,39.94
2023-01-27T03:39:36.114Z,39.52
2023-01-27T03:40:36.099Z,38.85
2023-01-27T03:41:36.105Z,38.33
2023-01-27T03:42:36.094Z,38.90
2023-01-27T03:43:36.081Z,39.40
2023-01-27T03:44:36.063Z,38.90
2023-01-27T03:45:36.052Z,38.56
2023-01-27T03:46:36.072Z,38.35
2023-01-27T03:47:36.030Z,38.76
2023-01-27T03:48:36.020Z,38.52
2023-01-27T03:49:36.010Z,43.01
2023-01-27T03:50:36.001Z,38.23
2023-01-27T03:51:35.993Z,37.57
2023-01-27T03:52:35.987Z,37.57
2023-01-27T03:53:35.973Z,37.32
2023-01-27T03:54:35.957Z,37.26
2023-01-27T03:55:35.952Z,38.23
2023-01-27T03:56:35.933Z,39.26
2023-01-27T03:57:35.949Z,38.32
2023-01-27T03:58:35.917Z,38.34
2023-01-27T03:59:35.917Z,37.99
2023-01-27T04:00:35.899Z,38.48
2023-01-27T04:01:35.953Z,39.25
2023-01-27T04:02:35.933Z,38.74
2023-01-27T04:03:35.872Z,37.55
2023-01-27T04:04:35.856Z,38.39
2023-01-27T04:05:35.853Z,38.49
2023-01-27T04:06:35.838Z,37.96
2023-01-27T04:07:35.848Z,40.90
2023-01-27T04:08:35.812Z,44.09
2023-01-27T04:09:35.815Z,38.76
2023-01-27T04:10:35.795Z,38.49
2023-01-27T04:11:35.786Z,38.56
2023-01-27T04:12:35.788Z,38.40
2023-01-27T04:13:35.772Z,38.35
2023-01-27T04:14:35.764Z,41.35
2023-01-27T04:15:35.769Z,39.76
2023-01-27T04:16:35.728Z,42.92
2023-01-27T04:17:35.737Z,46.54
2023-01-27T04:18:35.707Z,46.84
2023-01-27T04:19:35.705Z,49.67
2023-01-27T04:20:35.778Z,47.00
2023-01-27T04:21:35.685Z,46.21
2023-01-27T04:22:35.678Z,42.87
2023-01-27T04:23:35.661Z,38.28
2023-01-27T04:24:35.658Z,42.65
2023-01-27T04:25:35.641Z,41.32
2023-01-27T04:26:35.644Z,40.03
2023-01-27T04:27:35.636Z,43.19
2023-01-27T04:28:44.219Z,44.30
2023-01-27T04:29:36.614Z,46.23
2023-01-27T04:30:35.620Z,47.79
2023-01-27T04:31:35.664Z,43.95
2023-01-27T04:32:35.578Z,53.20
2023-01-27T04:33:35.560Z,43.28
2023-01-27T04:34:35.553Z,42.83
2023-01-27T04:35:39.034Z,41.58
2023-01-27T04:36:35.532Z,47.58
2023-01-27T04:37:35.536Z,42.77
2023-01-27T04:38:35.506Z,40.38
2023-01-27T04:39:35.517Z,41.65
2023-01-27T04:40:35.486Z,49.41
2023-01-27T04:41:35.486Z,44.61
2023-01-27T04:42:35.479Z,45.44
2023-01-27T04:43:35.457Z,39.88
2023-01-27T04:44:35.443Z,39.68
2023-01-27T04:45:35.460Z,39.74
2023-01-27T04:46:35.428Z,45.73
2023-01-27T04:47:35.431Z,40.53
2023-01-27T04:48:35.405Z,44.16
2023-01-27T04:49:35.406Z,48.08
2023-01-27T04:50:35.399Z,40.18
2023-01-27T04:51:35.383Z,40.90
2023-01-27T04:52:35.367Z,45.85
2023-01-27T04:53:35.383Z,41.91
2023-01-27T04:54:35.348Z,41.37
2023-01-27T04:55:35.338Z,45.30
2023-01-27T04:56:35.330Z,46.39
2023-01-27T04:57:35.319Z,42.37
2023-01-27T04:58:35.313Z,48.38
2023-01-27T04:59:35.297Z,47.82
2023-01-27T05:00:35.286Z,48.36
2023-01-27T05:01:35.295Z,43.09
2023-01-27T05:02:35.306Z,45.22
2023-01-27T05:03:35.273Z,46.16
2023-01-27T05:04:35.256Z,46.33
2023-01-27T05:05:35.238Z,49.84
2023-01-27T05:06:35.235Z,54.13
2023-01-27T05:07:35.217Z,44.75
2023-01-27T05:08:35.215Z,45.20
2023-01-27T05:09:35.200Z,46.14
2023-01-27T05:10:35.186Z,45.96
2023-01-27T05:11:35.179Z,45.55
2023-01-27T05:12:35.163Z,41.60
2023-01-27T05:13:35.183Z,42.78
2023-01-27T05:14:35.145Z,47.28
2023-01-27T05:15:35.164Z,44.50
2023-01-27T05:16:35.154Z,48.10
2023-01-27T05:17:35.118Z,47.00
2023-01-27T05:18:35.116Z,45.99
2023-01-27T05:19:35.096Z,46.99
2023-01-27T05:20:35.084Z,41.41
2023-01-27T05:21:35.074Z,45.93
2023-01-27T05:22:35.064Z,50.18
2023-01-27T05:23:35.065Z,48.65
2023-01-27T05:24:35.048Z,50.57
2023-01-27T05:25:35.033Z,41.23
2023-01-27T05:26:35.023Z,47.56
2023-01-27T05:27:35.016Z,42.16
2023-01-27T05:28:35.016Z,45.84
2023-01-27T05:29:34.998Z,48.17
2023-01-27T05:31:25.218Z,40.56
2023-01-27T05:32:25.053Z,52.77
2023-01-27T05:33:25.059Z,46.00
2023-01-27T05:34:25.050Z,52.34
2023-01-27T05:35:25.024Z,45.22
2023-01-27T05:36:25.021Z,52.44
2023-01-27T05:37:25.012Z,50.43
2023-01-27T05:38:25.016Z,51.95
2023-01-27T05:39:24.983Z,42.05
2023-01-27T05:40:24.972Z,51.39
2023-01-27T05:41:24.998Z,46.82
2023-01-27T05:42:24.955Z,43.92
2023-01-27T05:43:24.953Z,45.61
2023-01-27T05:44:24.938Z,41.93
2023-01-27T05:45:24.923Z,49.48
2023-01-27T05:46:24.967Z,50.50
2023-01-27T05:47:24.902Z,50.56
2023-01-27T05:48:24.907Z,40.96
2023-01-27T05:49:24.892Z,47.60
2023-01-27T05:50:24.889Z,45.33
2023-01-27T05:51:24.865Z,48.89
2023-01-27T05:52:24.850Z,50.95
2023-01-27T05:53:24.852Z,44.97
2023-01-27T05:54:24.834Z,50.76
2023-01-27T05:55:24.820Z,47.94
2023-01-27T05:56:24.810Z,42.29
2023-01-27T05:57:24.800Z,45.13
2023-01-27T05:58:24.807Z,46.60
2023-01-27T05:59:24.783Z,47.95
2023-01-27T06:00:25.572Z,42.17
2023-01-27T06:01:25.684Z,47.67
2023-01-27T06:02:24.828Z,53.30
2023-01-27T06:03:24.855Z,49.97
2023-01-27T06:04:29.761Z,46.32
2023-01-27T06:05:24.771Z,52.94
2023-01-27T06:06:24.761Z,49.54
2023-01-27T06:07:25.918Z,47.80
2023-01-27T06:08:25.923Z,49.48
2023-01-27T06:09:25.895Z,46.89
2023-01-27T06:10:25.859Z,49.16
2023-01-27T06:11:26.008Z,49.90
2023-01-27T06:12:25.828Z,42.36
2023-01-27T06:13:25.874Z,43.00
2023-01-27T06:14:25.817Z,50.71
2023-01-27T06:15:25.805Z,48.13
2023-01-27T06:16:25.910Z,47.53
2023-01-27T06:17:25.795Z,47.77
2023-01-27T06:18:25.823Z,48.04
2023-01-27T06:19:25.793Z,42.50
2023-01-27T06:20:25.766Z,49.81
2023-01-27T06:21:25.800Z,55.47
2023-01-27T06:22:25.810Z,51.43
2023-01-27T06:23:25.716Z,52.97
2023-01-27T06:24:25.835Z,52.68
2023-01-27T06:25:25.718Z,51.80
2023-01-27T06:26:25.716Z,54.22
2023-01-27T06:27:25.708Z,48.93
2023-01-27T06:28:29.879Z,53.95
2023-01-27T06:29:26.702Z,53.95
2023-01-27T06:30:25.702Z,53.53
2023-01-27T06:31:25.754Z,53.48
2023-01-27T06:32:25.656Z,54.13
2023-01-27T06:33:25.647Z,54.37
2023-01-27T06:34:25.685Z,51.02
2023-01-27T06:35:25.626Z,52.53
2023-01-27T06:36:25.623Z,53.02
2023-01-27T06:37:25.578Z,47.91
2023-01-27T06:38:25.602Z,57.37
2023-01-27T06:39:25.583Z,52.76
2023-01-27T06:40:25.578Z,54.51
2023-01-27T06:41:25.532Z,51.32
2023-01-27T06:42:25.580Z,57.46
2023-01-27T06:43:25.579Z,51.96
2023-01-27T06:44:25.559Z,52.72
2023-01-27T06:45:25.580Z,50.07
2023-01-27T06:46:25.556Z,46.19
2023-01-27T06:47:25.568Z,54.72
2023-01-27T06:48:25.532Z,54.93
2023-01-27T06:49:26.011Z,53.55
2023-01-27T06:50:25.459Z,50.68
2023-01-27T06:51:25.437Z,45.80
2023-01-27T06:52:25.476Z,53.98
2023-01-27T06:53:25.481Z,49.47
2023-01-27T06:54:25.420Z,53.28
2023-01-27T06:55:25.384Z,47.22
2023-01-27T06:56:25.419Z,51.02
2023-01-27T06:57:25.403Z,52.50
2023-01-27T06:58:25.417Z,54.97
2023-01-27T06:59:25.396Z,50.96
2023-01-27T07:00:25.374Z,53.25
2023-01-27T07:01:25.344Z,48.65
2023-01-27T07:02:25.445Z,47.67
2023-01-27T07:03:25.387Z,53.50
2023-01-27T07:04:25.316Z,52.85
2023-01-27T07:05:25.330Z,51.47
2023-01-27T07:06:25.322Z,52.85
2023-01-27T07:07:25.315Z,56.68
2023-01-27T07:08:25.293Z,52.77
2023-01-27T07:09:25.362Z,45.59
2023-01-27T07:10:25.261Z,50.45
2023-01-27T07:11:25.337Z,50.10
2023-01-27T07:12:25.268Z,46.26
2023-01-27T07:13:25.242Z,47.38
2023-01-27T07:14:25.242Z,51.04
2023-01-27T07:15:25.254Z,51.49
2023-01-27T07:16:25.269Z,49.04
2023-01-27T07:17:25.199Z,44.30
2023-01-27T07:18:25.246Z,49.58
2023-01-27T07:19:25.178Z,52.01
2023-01-27T07:20:25.227Z,47.02
2023-01-27T07:21:25.670Z,53.54
2023-01-27T07:22:25.129Z,50.99
2023-01-27T07:23:25.177Z,48.37
2023-01-27T07:24:25.162Z,51.72
2023-01-27T07:25:25.091Z,49.12
2023-01-27T07:26:25.412Z,52.15
2023-01-27T07:27:25.133Z,51.57
2023-01-27T07:28:25.094Z,53.21
2023-01-27T07:29:25.064Z,56.05
2023-01-27T07:30:25.112Z,45.86
2023-01-27T07:31:25.164Z,45.21
2023-01-27T07:32:27.255Z,53.45
2023-01-27T07:33:25.067Z,55.44
2023-01-27T07:34:25.088Z,49.17
2023-01-27T07:35:25.063Z,52.58
2023-01-27T07:36:25.077Z,48.32
2023-01-27T07:37:25.040Z,46.48
2023-01-27T07:38:25.015Z,47.48
2023-01-27T07:39:25.165Z,45.82
2023-01-27T07:40:25.006Z,46.68
2023-01-27T07:41:24.960Z,50.55
2023-01-27T07:42:24.975Z,52.87
2023-01-27T07:43:24.951Z,54.48
2023-01-27T07:44:24.923Z,51.03
2023-01-27T07:45:25.009Z,49.05
2023-01-27T07:46:24.959Z,46.65
2023-01-27T07:47:24.938Z,48.41
2023-01-27T07:48:24.847Z,55.79
2023-01-27T07:49:27.169Z,59.54
2023-01-27T07:50:24.897Z,52.34
2023-01-27T07:51:24.824Z,51.59
2023-01-27T07:52:24.872Z,52.88
2023-01-27T07:53:24.810Z,48.75
2023-01-27T07:54:24.845Z,55.89
2023-01-27T07:55:24.874Z,52.20
2023-01-27T07:56:24.831Z,54.95
2023-01-27T07:57:24.768Z,53.59
2023-01-27T07:58:24.749Z,54.00
2023-01-27T07:59:24.789Z,55.10
2023-01-27T08:00:24.757Z,53.54
2023-01-27T08:01:24.785Z,57.12
2023-01-27T08:02:24.722Z,53.69
2023-01-27T08:03:24.828Z,56.05
2023-01-27T08:04:24.672Z,55.21
2023-01-27T08:05:24.669Z,54.96
2023-01-27T08:06:24.671Z,54.42
2023-01-27T08:07:24.696Z,52.40
2023-01-27T08:08:24.673Z,57.59
2023-01-27T08:09:24.649Z,58.94
2023-01-27T08:10:24.651Z,57.48
2023-01-27T08:11:24.616Z,55.38
2023-01-27T08:12:24.703Z,54.76
2023-01-27T08:13:24.680Z,51.16
2023-01-27T08:14:24.800Z,44.20
2023-01-27T08:15:24.642Z,43.76
2023-01-27T08:16:24.612Z,56.62
2023-01-27T08:17:24.633Z,48.12
2023-01-27T08:18:24.613Z,50.44
2023-01-27T08:19:24.560Z,50.12
2023-01-27T08:20:24.675Z,46.02
2023-01-27T08:21:24.713Z,48.79
2023-01-27T08:22:24.588Z,54.58
2023-01-27T08:23:24.750Z,46.84
2023-01-27T08:24:24.619Z,51.93
2023-01-27T08:25:24.540Z,48.69
2023-01-27T08:26:24.471Z,50.49
2023-01-27T08:27:24.528Z,52.93
2023-01-27T08:28:24.509Z,53.37
2023-01-27T08:29:24.516Z,50.25
2023-01-27T08:30:24.517Z,46.09
2023-01-27T08:31:24.509Z,50.25
2023-01-27T08:32:24.432Z,51.84
2023-01-27T08:33:24.465Z,55.36
2023-01-27T08:34:24.461Z,51.98
2023-01-27T08:35:24.460Z,52.76
2023-01-27T08:36:24.408Z,53.44
2023-01-27T08:37:24.356Z,50.88
2023-01-27T08:38:24.365Z,55.72
2023-01-27T08:39:25.572Z,51.04
2023-01-27T08:40:24.399Z,53.37
2023-01-27T08:41:24.402Z,48.85
2023-01-27T08:42:24.321Z,50.13
2023-01-27T08:43:24.355Z,47.87
2023-01-27T08:44:24.296Z,54.83
2023-01-27T08:45:24.292Z,58.95
2023-01-27T08:46:24.321Z,52.62
2023-01-27T08:47:24.337Z,51.41
2023-01-27T08:48:24.280Z,47.31
2023-01-27T08:49:24.298Z,48.84
2023-01-27T08:50:24.264Z,54.79
2023-01-27T08:51:24.264Z,51.92
2023-01-27T08:52:24.200Z,54.96
2023-01-27T08:53:24.220Z,45.39
2023-01-27T08:54:24.261Z,52.56
2023-01-27T08:55:24.229Z,49.40
2023-01-27T08:56:24.166Z,54.77
2023-01-27T08:57:24.182Z,44.75
2023-01-27T08:58:24.375Z,49.47
2023-01-27T08:59:24.221Z,52.44
2023-01-27T09:00:24.247Z,50.61
2023-01-27T09:01:25.301Z,51.48
2023-01-27T09:02:24.499Z,58.08
2023-01-27T09:12:17.575Z,48.48
2023-01-27T09:13:17.515Z,62.04
2023-01-27T09:14:33.051Z,57.40
2023-01-27T09:15:17.460Z,53.81
2023-01-27T09:16:17.430Z,56.32
2023-01-27T09:17:18.922Z,56.37
2023-01-27T09:18:17.374Z,51.26
2023-01-27T09:19:17.409Z,52.17
2023-01-27T09:20:17.739Z,57.38
2023-01-27T09:21:17.361Z,53.01
2023-01-27T09:22:17.338Z,58.65
2023-01-27T09:23:17.327Z,46.91
2023-01-27T09:24:17.443Z,46.61
2023-01-27T09:25:17.365Z,53.09
2023-01-27T09:26:17.326Z,50.88
2023-01-27T09:27:19.226Z,54.38
2023-01-27T09:28:18.271Z,46.93
2023-01-27T09:29:17.333Z,56.28
2023-01-27T09:30:17.391Z,58.35
2023-01-27T09:31:17.369Z,52.73
2023-01-27T09:32:17.235Z,50.40
2023-01-27T09:33:17.237Z,48.21
2023-01-27T09:34:17.231Z,48.38
2023-01-27T09:35:17.434Z,48.76
2023-01-27T09:36:17.189Z,49.11
2023-01-27T09:37:17.209Z,55.57
2023-01-27T09:38:17.189Z,49.59
2023-01-27T09:39:17.170Z,51.85
2023-01-27T09:40:17.209Z,51.69
2023-01-27T09:41:17.172Z,45.75
2023-01-27T09:42:17.189Z,49.32
2023-01-27T09:43:17.130Z,48.74
2023-01-27T09:44:17.133Z,45.34
2023-01-27T09:45:17.192Z,48.66
2023-01-27T09:46:17.166Z,42.34
2023-01-27T09:47:17.080Z,50.78
2023-01-27T09:48:17.138Z,48.34
2023-01-27T09:49:17.086Z,45.22
2023-01-27T09:50:17.111Z,47.57
2023-01-27T09:51:17.090Z,52.95
2023-01-27T09:52:17.111Z,48.91
2023-01-27T09:53:17.045Z,51.22
2023-01-27T09:54:16.990Z,48.07
2023-01-27T09:55:18.462Z,46.71
2023-01-27T09:56:17.033Z,56.56
2023-01-27T09:57:16.984Z,51.44
2023-01-27T09:58:16.998Z,47.56
2023-01-27T09:59:16.989Z,47.44
2023-01-27T10:00:16.953Z,49.97
2023-01-27T10:01:16.950Z,48.06
2023-01-27T10:02:16.975Z,52.36
2023-01-27T10:03:16.941Z,52.65
2023-01-27T10:04:16.975Z,49.83
2023-01-27T10:05:16.940Z,51.08
2023-01-27T10:06:16.907Z,47.89
2023-01-27T10:07:16.912Z,48.93
2023-01-27T10:08:16.896Z,48.58
2023-01-27T10:09:16.871Z,48.43
2023-01-27T10:10:16.942Z,52.02
2023-01-27T10:11:16.904Z,49.73
2023-01-27T10:12:16.830Z,53.75
2023-01-27T10:13:16.827Z,47.00
2023-01-27T10:14:16.828Z,45.73
2023-01-27T10:15:16.832Z,50.98
2023-01-27T10:16:16.844Z,53.24
2023-01-27T10:17:16.792Z,51.10
2023-01-27T10:18:16.755Z,49.90
2023-01-27T10:19:16.796Z,51.07
2023-01-27T10:20:16.785Z,52.72
2023-01-27T10:21:16.730Z,44.83
2023-01-27T10:22:16.759Z,54.79
2023-01-27T10:23:16.702Z,52.52
2023-01-27T10:24:16.707Z,52.27
2023-01-27T10:25:16.734Z,46.66
2023-01-27T10:26:16.673Z,50.52
2023-01-27T10:27:16.667Z,46.33
2023-01-27T10:28:16.682Z,52.09
2023-01-27T10:29:16.639Z,50.45
2023-01-27T10:30:16.751Z,46.51
2023-01-27T10:31:16.845Z,49.80
2023-01-27T10:32:16.648Z,49.10
2023-01-27T10:33:16.605Z,44.51
2023-01-27T10:34:16.603Z,50.42
2023-01-27T10:35:16.573Z,45.94
2023-01-27T10:36:16.607Z,53.38
2023-01-27T10:37:16.591Z,45.68
2023-01-27T10:38:16.613Z,48.24
2023-01-27T10:39:16.539Z,44.89
2023-01-27T10:40:16.590Z,52.62
2023-01-27T10:41:16.614Z,48.25
2023-01-27T10:42:16.548Z,48.03
2023-01-27T10:43:16.555Z,48.16
2023-01-27T10:44:16.481Z,48.52
2023-01-27T11:12:50.136Z,46.98
2023-01-27T11:13:50.210Z,45.91
2023-01-27T11:14:50.073Z,50.52
2023-01-27T11:24:01.151Z,49.94
2023-01-27T11:25:01.057Z,47.43
2023-01-27T11:41:45.340Z,51.59
2023-01-27T11:42:45.330Z,49.43
2023-01-27T11:50:29.225Z,55.08
2023-01-27T11:51:29.282Z,53.15
2023-01-27T11:52:29.281Z,51.14
2023-01-27T11:53:29.249Z,48.42
2023-01-27T11:54:29.201Z,53.11
2023-01-27T11:55:29.227Z,47.40
2023-01-27T11:56:29.165Z,49.36
2023-01-27T11:57:29.169Z,50.03
2023-01-27T11:58:29.143Z,56.11
2023-01-27T11:59:29.755Z,53.97
2023-01-27T12:00:29.114Z,45.84
2023-01-27T12:01:29.180Z,49.94
2023-01-27T12:02:29.086Z,52.92
2023-01-27T12:03:29.082Z,50.28
2023-01-27T12:04:29.104Z,53.09
2023-01-27T12:05:29.091Z,48.83
2023-01-27T12:06:29.046Z,54.45
2023-01-27T12:07:29.051Z,57.00
2023-01-27T12:08:29.056Z,50.33
2023-01-27T12:09:29.025Z,55.70
2023-01-27T12:10:29.086Z,55.75
2023-01-27T12:11:28.997Z,51.90
2023-01-27T12:12:28.985Z,48.50
2023-01-27T12:13:28.990Z,46.09
2023-01-27T12:14:28.998Z,49.43
2023-01-27T12:15:28.968Z,53.20
2023-01-27T12:16:29.011Z,47.95
2023-01-27T12:17:28.952Z,55.44
2023-01-27T12:18:28.949Z,47.25
2023-01-27T12:19:28.971Z,49.98
2023-01-27T12:20:28.972Z,50.63
2023-01-27T12:21:28.922Z,52.81
2023-01-27T12:22:28.890Z,52.41
2023-01-27T12:23:28.875Z,56.43
2023-01-27T12:24:28.949Z,48.21
2023-01-27T12:25:28.900Z,50.91
2023-01-27T12:26:28.848Z,45.16
2023-01-27T12:27:28.912Z,51.07
2023-01-27T12:28:28.919Z,54.73
2023-01-27T12:29:28.961Z,56.02
2023-01-27T12:30:28.811Z,47.18
2023-01-27T12:31:29.013Z,52.11
2023-01-27T12:32:28.802Z,44.85
2023-01-27T12:33:28.791Z,54.82
2023-01-27T12:34:28.882Z,48.82
2023-01-27T12:35:28.754Z,53.46
2023-01-27T12:36:30.312Z,51.17
2023-01-27T12:37:28.780Z,50.00
2023-01-27T12:38:28.738Z,54.82
2023-01-27T12:39:28.738Z,47.85
2023-01-27T12:40:28.727Z,50.94
2023-01-27T12:41:28.719Z,41.57
2023-01-27T12:42:28.739Z,50.72
2023-01-27T12:43:28.704Z,53.75
2023-01-27T12:44:28.736Z,50.72
2023-01-27T12:45:28.683Z,51.68
2023-01-27T12:46:28.707Z,52.05
2023-01-27T12:47:28.613Z,46.28
2023-01-27T12:48:28.607Z,46.48
2023-01-27T12:49:28.603Z,46.45
2023-01-27T12:50:28.599Z,48.76
2023-01-27T12:51:28.691Z,49.63
2023-01-27T12:52:28.597Z,52.72
2023-01-27T12:53:28.592Z,46.32
2023-01-27T12:54:28.546Z,48.08
2023-01-27T12:55:28.556Z,52.96
2023-01-27T12:56:28.556Z,51.22
2023-01-27T12:57:28.547Z,45.83
2023-01-27T12:58:28.530Z,50.39
2023-01-27T12:59:28.503Z,49.95
2023-01-27T13:00:28.516Z,54.55
2023-01-27T13:01:28.516Z,44.82
2023-01-27T13:02:28.466Z,51.97
2023-01-27T13:03:28.599Z,47.96
2023-01-27T13:04:28.432Z,50.19
2023-01-27T13:05:28.484Z,50.90
2023-01-27T13:06:28.440Z,54.09
2023-01-27T13:07:28.401Z,51.12
2023-01-27T13:08:28.397Z,51.80
2023-01-27T13:09:28.406Z,48.89
2023-01-27T13:10:28.373Z,49.32
2023-01-27T13:11:28.402Z,47.94
2023-01-27T13:12:28.384Z,52.08
2023-01-27T13:13:28.354Z,51.03
2023-01-27T13:14:28.359Z,54.48
2023-01-27T13:15:28.319Z,47.51
2023-01-27T13:16:28.353Z,53.67
2023-01-27T13:17:28.290Z,53.17
2023-01-27T13:18:28.282Z,52.43
2023-01-27T13:19:28.274Z,50.14
2023-01-27T13:20:28.263Z,49.02
2023-01-27T13:21:28.268Z,47.25
2023-01-27T13:22:28.254Z,47.36
2023-01-27T13:23:28.258Z,52.48
2023-01-27T13:24:28.278Z,49.21
2023-01-27T13:25:28.206Z,42.67
2023-01-27T13:26:28.251Z,47.17
2023-01-27T13:27:28.189Z,54.58
2023-01-27T13:28:28.224Z,48.61
2023-01-27T13:29:28.163Z,49.09
2023-01-27T13:30:28.216Z,48.87
2023-01-27T13:31:28.222Z,54.20
2023-01-27T13:32:28.183Z,54.18
2023-01-27T13:33:28.126Z,52.06
2023-01-27T13:34:28.116Z,50.45
2023-01-27T13:35:28.194Z,55.12
2023-01-27T13:36:28.155Z,53.96
2023-01-27T13:37:28.098Z,49.53
2023-01-27T13:38:28.085Z,49.24
2023-01-27T13:39:28.084Z,55.09
2023-01-27T13:40:28.117Z,48.86
2023-01-27T13:41:28.054Z,49.64
2023-01-27T13:42:28.053Z,52.71
2023-01-27T13:43:28.019Z,46.19
2023-01-27T13:44:28.000Z,51.20
2023-01-27T13:45:28.009Z,44.93
2023-01-27T13:46:28.080Z,50.84
2023-01-27T13:47:28.011Z,49.56
2023-01-27T13:48:27.968Z,48.71
2023-01-27T13:49:27.961Z,48.61
2023-01-27T13:50:27.949Z,46.75
2023-01-27T13:51:27.954Z,57.14
2023-01-27T13:52:27.935Z,51.32
2023-01-27T13:53:27.924Z,52.19
2023-01-27T13:54:27.900Z,44.35
2023-01-27T13:55:27.904Z,49.43
2023-01-27T13:56:27.927Z,52.73
2023-01-27T13:57:27.877Z,46.95
2023-01-27T13:58:27.854Z,48.77
2023-01-27T13:59:27.852Z,56.22
2023-01-27T14:00:27.830Z,53.13